Pitchstone Plateau, WY

3:56 AM MST on February 22, 2017 (GMT -0700)
MGCKW4 | | Change Station

Elev 7035 ft 44.13 °N, 110.74 °W | Updated 26 minutes ago

Unknown
N/A
27.0 °F
Feels Like 27.0 °F
N
-
Wind Variable Wind from North

Today
High -- | Low -- °F
--% Chance of Precip.
Yesterday
High -- | Low -- °F
Precip. -- in
Pressure 29.93 in
Visibility -9999.0 miles
Clouds
Dew Point Not available.
Humidity Not available.
Rainfall in
Snow Depth Not available.
7:10 AM 6:02 PM
Waning Crescent, 18% visible
METAR KP60 220956Z AUTO VRB05KT M06/M08 A2989 RMK AO1 SLP133 T10561083 $
Pressure 29.93 in
Visibility -9999.0 miles
Clouds
Dew Point Not available.
Humidity Not available.
Rainfall in
Snow Depth Not available.
7:10 AM 6:02 PM
Waning Crescent, 18% visible
METAR KP60 220956Z AUTO VRB05KT M06/M08 A2989 RMK AO1 SLP133 T10561083 $

Get Your Daily Forecast Email!

Thanks for signing up!

Be on the lookout for a verification email in your inbox.

You'll start receiving the daily forecast at 8 AM.

×

10-Day Weather Forecast

Almanac

Astronomy

Feb. 22, 2017 Rise Set
Actual Time
Civil Twilight
Nautical Twilight
Astronomical Twilight
Moon
Length of Visible Light
Length of Day
Tomorrow will be .
, % of the Moon is Illuminated

Today's Extremes

State Highs State Lows

Community

WunderPhotos

Upload Photos

1,962,540 photos uploaded!

WunderBlog® & News

Nearby

Air Quality

  Air Quality AQ Index Pollutant
Not available.

Snow Depth

Station Depth Elevation

Earthquake Activity

City Distance Mag. Time & Date
Minimum magnitude displayed is 2.5.

Coastal Water Temperatures

Place Temperature

Stations

Nearby Weather Stations

Station Location Temp. Windchill Dew Point Humidity Wind Precip. Elev Updated Type
                   

Watches & Warnings

There are currently no watches in effect.